createdAt,value
2022-10-13T00:01:23.392Z,101499.84
2022-10-13T00:04:10.371Z,101502.75
2022-10-13T00:06:57.395Z,101498.66
2022-10-13T00:09:44.398Z,101492.47
2022-10-13T00:12:24.925Z,101489.03
2022-10-13T00:15:11.408Z,101499.81
2022-10-13T00:17:59.368Z,101494.75
2022-10-13T00:20:39.451Z,101494.88
2022-10-13T00:23:26.458Z,101493.59
2022-10-13T00:26:10.474Z,101491.31
2022-10-13T00:28:57.397Z,101483.13
2022-10-13T00:31:45.348Z,101485.25
2022-10-13T00:34:25.714Z,101487.38
2022-10-13T00:37:12.334Z,101477.63
2022-10-13T00:39:59.338Z,101494.41
2022-10-13T00:42:46.381Z,101484.25
2022-10-13T00:45:36.337Z,101487.16
2022-10-13T00:48:23.346Z,101483.41
2022-10-13T00:51:11.329Z,101481.97
2022-10-13T00:53:53.485Z,101484.22
2022-10-13T00:56:43.372Z,101476.91
2022-10-13T00:59:41.313Z,101480.63
2022-10-13T01:02:30.332Z,101482.91
2022-10-13T01:05:14.422Z,101481.28
2022-10-13T01:08:02.320Z,101475.41
2022-10-13T01:11:10.329Z,101486.78
2022-10-13T01:13:59.873Z,101489.84
2022-10-13T01:17:05.295Z,101485.75
2022-10-13T01:19:56.760Z,101485.88
2022-10-13T01:23:10.307Z,101483.81
2022-10-13T01:26:36.256Z,101475.88
2022-10-13T01:29:20.424Z,101479.56
2022-10-13T01:32:39.297Z,101477.91
2022-10-13T01:35:50.469Z,101473.41
2022-10-13T01:38:55.287Z,101476.31
2022-10-13T01:41:57.392Z,101474.34
2022-10-13T01:44:50.260Z,101477.13
2022-10-13T01:47:32.422Z,101473.97
2022-10-13T01:50:23.282Z,101477.09
2022-10-13T01:53:08.401Z,101473.78
2022-10-13T01:56:01.250Z,101470.66
2022-10-13T01:58:44.375Z,101459.53
2022-10-13T02:02:11.234Z,101470.75
2022-10-13T02:04:59.272Z,101471.69
2022-10-13T02:07:57.857Z,101473.81
2022-10-13T02:10:54.196Z,101483.25
2022-10-13T02:13:36.937Z,101486.44
2022-10-13T02:16:24.212Z,101486.78
2022-10-13T02:19:07.050Z,101477.66
2022-10-13T02:21:55.249Z,101483.81
2022-10-13T02:24:36.001Z,101482.19
2022-10-13T02:27:16.219Z,101491.63
2022-10-13T02:30:04.319Z,101491.75
2022-10-13T02:32:44.216Z,101487.66
2022-10-13T02:35:31.210Z,101485.38
2022-10-13T02:38:19.220Z,101488.47
2022-10-13T02:41:02.105Z,101497.91
2022-10-13T02:43:49.195Z,101497.91
2022-10-13T02:46:39.213Z,101486.34
2022-10-13T02:49:19.332Z,101492.31
2022-10-13T02:52:06.197Z,101493.31
2022-10-13T02:54:48.297Z,101487.59
2022-10-13T02:57:35.165Z,101492.94
2022-10-13T03:00:21.293Z,101495.00
2022-10-13T03:03:08.146Z,101495.84
2022-10-13T03:25:54.484Z,101509.59
2022-10-13T03:28:41.561Z,101508.56
2022-10-13T03:31:21.571Z,101499.91
2022-10-13T03:34:19.497Z,101499.44
2022-10-13T03:37:08.468Z,101494.31
2022-10-13T03:39:56.448Z,101493.25
2022-10-13T03:42:43.490Z,101488.09
2022-10-13T03:45:23.890Z,101479.97
2022-10-13T03:48:03.506Z,101471.34
2022-10-13T03:50:51.440Z,101472.22
2022-10-13T03:53:32.199Z,101472.97
2022-10-13T03:56:19.480Z,101455.53
2022-10-13T03:59:01.151Z,101463.91
2022-10-13T04:01:47.540Z,101454.91
2022-10-13T04:04:27.851Z,101462.91
2022-10-13T04:07:14.477Z,101456.06
2022-10-13T04:09:54.813Z,101460.78
2022-10-13T04:12:41.465Z,101456.34
2022-10-13T04:15:21.841Z,101460.75
2022-10-13T04:18:08.422Z,101459.44
2022-10-13T04:20:48.843Z,101448.47
2022-10-13T04:23:35.456Z,101440.75
2022-10-13T04:26:22.009Z,101449.69
2022-10-13T04:29:09.440Z,101447.69
2022-10-13T04:31:50.324Z,101454.47
2022-10-13T04:34:37.422Z,101456.75
2022-10-13T04:37:17.808Z,101455.88
2022-10-13T04:40:04.451Z,101467.25
2022-10-13T04:42:44.943Z,101453.91
2022-10-13T04:45:31.426Z,101465.63
2022-10-13T04:48:18.507Z,101462.59
2022-10-13T04:51:06.414Z,101462.28
2022-10-13T04:53:53.379Z,101463.03
2022-10-13T04:56:34.380Z,101472.03
2022-10-13T04:59:21.410Z,101465.25
2022-10-13T05:02:03.321Z,101472.28
2022-10-13T05:04:50.389Z,101467.94
2022-10-13T05:07:38.401Z,101476.00
2022-10-13T05:10:18.510Z,101472.75
2022-10-13T05:13:05.409Z,101479.69
2022-10-13T05:15:46.464Z,101480.22
2022-10-13T05:18:35.352Z,101481.16
2022-10-13T05:21:52.371Z,101492.09
2022-10-13T05:24:47.436Z,101491.03
2022-10-13T05:27:27.733Z,101492.69
2022-10-13T05:30:18.357Z,101488.66
2022-10-13T05:32:58.849Z,101493.88
2022-10-13T05:35:45.322Z,101498.47
2022-10-13T05:38:26.254Z,101495.53
2022-10-13T05:41:21.372Z,101503.75
2022-10-13T05:44:11.353Z,101500.75
2022-10-13T05:47:07.765Z,101499.72
2022-10-13T05:49:47.685Z,101510.19
2022-10-13T05:52:37.368Z,101495.72
2022-10-13T05:55:19.164Z,101506.22
2022-10-13T05:58:06.289Z,101504.75
2022-10-13T06:00:47.151Z,101514.75
2022-10-13T06:03:37.289Z,101508.28
2022-10-13T06:06:26.824Z,101507.03
2022-10-13T06:09:10.394Z,101510.75
2022-10-13T06:11:57.311Z,101497.44
2022-10-13T06:14:37.453Z,101499.69
2022-10-13T06:17:24.312Z,101505.59
2022-10-13T06:20:06.173Z,101507.28
2022-10-13T06:22:53.285Z,101495.16
2022-10-13T06:25:47.285Z,101496.97
2022-10-13T06:28:27.892Z,101487.91
2022-10-13T06:31:14.288Z,101493.56
2022-10-13T06:34:01.314Z,101499.75
2022-10-13T06:36:42.236Z,101499.09
2022-10-13T06:39:29.280Z,101487.59
2022-10-13T06:42:17.569Z,101490.91
2022-10-13T06:45:14.547Z,101495.63
2022-10-13T06:48:01.289Z,101491.16
2022-10-13T06:50:43.026Z,101495.19
2022-10-13T06:53:30.262Z,101498.22
2022-10-13T06:56:10.992Z,101499.78
2022-10-13T06:58:57.287Z,101508.94
2022-10-13T07:01:46.278Z,101505.28
2022-10-13T07:04:35.279Z,101507.75
2022-10-13T07:07:29.258Z,101505.28
2022-10-13T07:10:16.348Z,101520.72
2022-10-13T07:12:56.265Z,101509.97
2022-10-13T07:15:46.266Z,101506.00
2022-10-13T07:18:26.342Z,101508.09
2022-10-13T07:21:13.218Z,101489.59
2022-10-13T07:24:00.232Z,101488.81
2022-10-13T07:26:40.647Z,101485.00
2022-10-13T07:29:27.239Z,101494.13
2022-10-13T07:32:14.222Z,101488.94
2022-10-13T07:35:01.246Z,101478.00
2022-10-13T07:37:41.620Z,101478.06
2022-10-13T07:40:28.255Z,101481.94
2022-10-13T07:43:15.236Z,101481.53
2022-10-13T07:46:02.212Z,101479.91
2022-10-13T07:48:49.233Z,101482.03
2022-10-13T07:51:30.305Z,101474.41
2022-10-13T07:54:17.184Z,101478.06
2022-10-13T07:57:08.236Z,101485.31
2022-10-13T07:59:55.200Z,101478.88
2022-10-13T08:02:45.350Z,101478.50
2022-10-13T08:05:32.184Z,101484.81
2022-10-13T08:08:19.165Z,101487.34
2022-10-13T08:11:05.009Z,101478.69
2022-10-13T08:13:52.185Z,101469.88
2022-10-13T08:16:39.198Z,101475.72
2022-10-13T08:19:22.154Z,101480.28
2022-10-13T08:22:09.843Z,101477.69
2022-10-13T08:24:56.258Z,101476.13
2022-10-13T08:27:50.747Z,101488.06
2022-10-13T08:30:32.293Z,101482.22
2022-10-13T08:33:19.161Z,101477.91
2022-10-13T08:36:06.167Z,101482.22
2022-10-13T08:38:46.298Z,101475.22
2022-10-13T08:41:45.207Z,101479.09
2022-10-13T08:45:16.082Z,101485.41
2022-10-13T08:48:19.182Z,101479.03
2022-10-13T08:51:07.570Z,101481.88
2022-10-13T08:53:57.141Z,101475.16
2022-10-13T08:56:37.528Z,101487.53
2022-10-13T08:59:28.165Z,101481.19
2022-10-13T09:02:22.688Z,101483.13
2022-10-13T09:05:11.134Z,101489.13
2022-10-13T09:07:57.461Z,101476.19
2022-10-13T09:10:44.084Z,101488.91
2022-10-13T09:13:28.506Z,101483.19
2022-10-13T09:16:15.133Z,101488.63
2022-10-13T09:19:02.131Z,101489.47
2022-10-13T09:21:49.086Z,101492.41
2022-10-13T09:24:36.079Z,101497.25
2022-10-13T09:27:22.225Z,101488.75
2022-10-13T09:30:32.113Z,101487.97
2022-10-13T09:33:22.108Z,101486.28
2022-10-13T09:36:09.108Z,101499.13
2022-10-13T09:39:29.085Z,101489.47
2022-10-13T09:42:32.084Z,101487.88
2022-10-13T09:45:27.286Z,101486.19
2022-10-13T09:48:23.106Z,101482.88
2022-10-13T09:51:11.092Z,101491.06
2022-10-13T09:53:51.661Z,101487.84
2022-10-13T09:57:00.090Z,101487.00
2022-10-13T09:59:46.135Z,101476.19
2022-10-13T10:02:44.099Z,101480.03
2022-10-13T10:05:57.389Z,101476.72
2022-10-13T10:09:04.608Z,101475.22
2022-10-13T10:11:47.827Z,101477.97
2022-10-13T10:14:43.040Z,101473.00
2022-10-13T10:17:59.067Z,101469.69
2022-10-13T10:20:54.227Z,101468.81
2022-10-13T10:23:44.068Z,101455.63
2022-10-13T10:26:48.087Z,101456.66
2022-10-13T10:29:50.011Z,101450.28
2022-10-13T10:32:51.052Z,101453.13
2022-10-13T10:36:03.997Z,101450.03
2022-10-13T10:38:59.074Z,101462.19
2022-10-13T10:42:26.046Z,101445.47
2022-10-13T10:45:18.055Z,101451.28
2022-10-13T10:48:03.074Z,101448.56
2022-10-13T10:50:50.066Z,101439.50
2022-10-13T10:53:48.570Z,101438.25
2022-10-13T10:57:01.025Z,101431.28
2022-10-13T10:59:44.240Z,101433.13
2022-10-13T11:03:14.041Z,101423.53
2022-10-13T11:06:04.090Z,101428.53
2022-10-13T11:09:01.996Z,101418.38
2022-10-13T11:11:43.142Z,101418.56
2022-10-13T11:14:43.999Z,101412.84
2022-10-13T11:17:36.031Z,101404.19
2022-10-13T11:20:28.144Z,101405.28
2022-10-13T11:23:15.007Z,101405.19
2022-10-13T11:26:27.071Z,101406.00
2022-10-13T11:29:08.400Z,101407.72
2022-10-13T11:31:54.694Z,101407.59
2022-10-13T11:34:44.979Z,101399.41
2022-10-13T11:37:55.693Z,101394.69
2022-10-13T11:40:56.941Z,101392.16
2022-10-13T11:44:06.000Z,101396.31
2022-10-13T11:47:09.127Z,101390.47
2022-10-13T11:50:13.954Z,101386.03
2022-10-13T11:53:37.978Z,101393.81
2022-10-13T11:56:48.520Z,101391.94
2022-10-13T11:59:38.950Z,101383.47
2022-10-13T12:02:19.561Z,101390.91
2022-10-13T12:05:31.088Z,101394.53
2022-10-13T12:08:11.069Z,101380.34
2022-10-13T12:11:03.955Z,101381.41
2022-10-13T12:13:44.038Z,101374.63
2022-10-13T12:16:30.936Z,101370.22
2022-10-13T12:19:28.039Z,101372.00
2022-10-13T12:22:18.935Z,101370.06
2022-10-13T12:25:17.957Z,101366.03
2022-10-13T12:28:03.419Z,101368.50
2022-10-13T12:30:49.895Z,101358.75
2022-10-13T12:33:41.888Z,101352.75
2022-10-13T12:36:34.885Z,101355.81
2022-10-13T12:39:22.902Z,101351.81
2022-10-13T12:42:11.952Z,101345.31
2022-10-13T12:44:52.533Z,101349.31
2022-10-13T12:47:58.937Z,101343.16
2022-10-13T12:50:45.911Z,101345.47
2022-10-13T12:53:34.991Z,101334.00
2022-10-13T12:56:37.923Z,101328.53
2022-10-13T12:59:26.974Z,101324.75
2022-10-13T13:02:30.885Z,101321.16
2022-10-13T13:05:50.806Z,101329.41
2022-10-13T13:08:40.004Z,101311.94
2022-10-13T13:11:43.154Z,101323.56
2022-10-13T13:14:38.885Z,101321.69
2022-10-13T13:17:57.679Z,101328.88
2022-10-13T13:20:33.918Z,101331.41
2022-10-13T13:23:30.770Z,101331.72
2022-10-13T13:26:32.197Z,101328.41
2022-10-13T13:29:12.264Z,101329.47
2022-10-13T13:31:58.828Z,101331.47
2022-10-13T13:34:45.876Z,101351.84
2022-10-13T13:37:48.049Z,101339.09
2022-10-13T13:40:34.881Z,101345.63
2022-10-13T13:43:25.868Z,101339.84
2022-10-13T13:46:07.998Z,101335.03
2022-10-13T13:48:54.839Z,101331.91
2022-10-13T13:51:41.795Z,101340.53
2022-10-13T13:54:21.965Z,101339.72
2022-10-13T13:57:08.819Z,101337.44
2022-10-13T13:59:56.825Z,101335.53
2022-10-13T14:02:46.197Z,101332.63
2022-10-13T14:05:32.827Z,101326.47
2022-10-13T14:08:13.222Z,101317.69
2022-10-13T14:10:59.784Z,101326.13
2022-10-13T14:13:46.822Z,101323.78
2022-10-13T14:16:40.806Z,101321.94
2022-10-13T14:19:27.805Z,101324.97
2022-10-13T14:22:09.583Z,101320.06
2022-10-13T14:24:56.773Z,101330.22
2022-10-13T14:27:45.880Z,101319.03
2022-10-13T14:30:25.766Z,101331.25
2022-10-13T14:33:12.815Z,101322.44
2022-10-13T14:35:52.878Z,101322.31
2022-10-13T14:38:40.811Z,101330.13
2022-10-13T14:41:21.086Z,101325.00
2022-10-13T14:44:07.755Z,101333.38
2022-10-13T14:46:58.753Z,101342.22
2022-10-13T14:49:45.782Z,101343.13
2022-10-13T14:52:25.863Z,101342.69
2022-10-13T14:55:12.765Z,101343.03
2022-10-13T14:57:59.756Z,101340.13
2022-10-13T15:00:43.043Z,101341.28
2022-10-13T15:03:29.764Z,101340.59
2022-10-13T15:06:24.742Z,101341.69
2022-10-13T15:09:04.887Z,101341.31
2022-10-13T15:27:31.907Z,101359.25
2022-10-13T15:30:19.051Z,101365.44
2022-10-13T15:32:59.894Z,101361.97
2022-10-13T15:35:40.284Z,101351.69
2022-10-13T15:38:26.899Z,101348.91
2022-10-13T15:41:07.969Z,101358.09
2022-10-13T15:43:54.930Z,101344.03
2022-10-13T15:46:35.284Z,101355.16
2022-10-13T15:49:21.860Z,101360.47
2022-10-13T15:52:02.344Z,101348.03
2022-10-13T15:54:48.813Z,101356.75
2022-10-13T15:57:37.860Z,101353.75
2022-10-13T16:00:19.933Z,101347.97
2022-10-13T16:03:06.847Z,101346.44
2022-10-13T16:05:48.918Z,101347.16
2022-10-13T16:08:35.830Z,101346.69
2022-10-13T16:11:28.827Z,101343.66
2022-10-13T16:14:15.774Z,101350.97
2022-10-13T16:17:02.847Z,101350.34
2022-10-13T16:19:49.825Z,101343.78
2022-10-13T16:22:29.913Z,101364.47
2022-10-13T16:25:17.802Z,101364.97
2022-10-13T16:28:05.833Z,101360.06
2022-10-13T16:30:46.210Z,101369.44
2022-10-13T16:33:32.791Z,101370.13
2022-10-13T16:36:22.791Z,101374.75
2022-10-13T16:39:02.914Z,101372.78
2022-10-13T16:41:51.775Z,101380.19
2022-10-13T16:44:31.915Z,101373.59
2022-10-13T16:47:19.021Z,101378.22
2022-10-13T16:49:58.882Z,101376.31
2022-10-13T16:52:45.790Z,101369.28
2022-10-13T16:55:32.795Z,101370.25
2022-10-13T16:58:19.805Z,101372.25
2022-10-13T17:01:06.803Z,101366.56
2022-10-13T17:03:56.768Z,101366.06
2022-10-13T17:06:39.414Z,101360.22
2022-10-13T17:09:25.753Z,101358.47
2022-10-13T17:12:05.840Z,101354.19
2022-10-13T17:14:54.760Z,101347.53
2022-10-13T17:17:35.079Z,101338.25
2022-10-13T17:20:22.766Z,101339.25
2022-10-13T17:23:02.898Z,101341.06
2022-10-13T17:25:49.730Z,101331.91
2022-10-13T17:28:30.888Z,101342.75
2022-10-13T17:31:22.740Z,101344.19
2022-10-13T17:34:09.745Z,101348.63
2022-10-13T17:36:56.722Z,101338.34
2022-10-13T17:39:36.814Z,101340.47
2022-10-13T17:42:23.726Z,101329.88
2022-10-13T17:45:10.688Z,101332.38
2022-10-13T17:47:51.674Z,101323.53
2022-10-13T17:50:38.722Z,101330.75
2022-10-13T17:53:25.703Z,101322.75
2022-10-13T17:56:06.812Z,101326.19
2022-10-13T17:58:54.685Z,101321.78
2022-10-13T18:01:48.765Z,101319.19
2022-10-13T18:04:29.921Z,101322.16
2022-10-13T18:07:16.690Z,101322.97
2022-10-13T18:10:03.683Z,101320.81
2022-10-13T18:12:44.271Z,101323.44
2022-10-13T18:15:30.673Z,101325.06
2022-10-13T18:18:19.725Z,101324.94
2022-10-13T18:21:07.607Z,101327.53
2022-10-13T18:23:57.644Z,101318.69
2022-10-13T18:26:44.672Z,101321.31
2022-10-13T18:29:24.754Z,101324.28
2022-10-13T18:32:11.670Z,101322.00
2022-10-13T18:34:51.756Z,101316.75
2022-10-13T18:37:38.657Z,101305.66
2022-10-13T18:40:25.637Z,101311.53
2022-10-13T18:43:06.004Z,101312.84
2022-10-13T18:45:52.642Z,101309.91
2022-10-13T18:48:33.441Z,101313.00
2022-10-13T18:51:23.659Z,101309.25
2022-10-13T18:54:05.303Z,101323.97
2022-10-13T18:56:51.608Z,101317.13
2022-10-13T18:59:32.102Z,101322.34
2022-10-13T19:02:18.734Z,101324.78
2022-10-13T19:05:05.640Z,101326.09
2022-10-13T19:07:45.690Z,101325.13
2022-10-13T19:10:32.586Z,101328.25
2022-10-13T19:13:12.756Z,101334.13
2022-10-13T19:16:10.664Z,101325.63
2022-10-13T19:18:57.619Z,101330.69
2022-10-13T19:21:47.742Z,101324.00
2022-10-13T19:24:32.689Z,101334.81
2022-10-13T19:27:26.595Z,101324.16
2022-10-13T19:30:09.283Z,101330.38
2022-10-13T19:32:58.614Z,101323.84
2022-10-13T19:35:45.959Z,101323.53
2022-10-13T19:38:32.579Z,101328.56
2022-10-13T19:41:15.081Z,101326.31
2022-10-13T19:44:03.561Z,101329.56
2022-10-13T19:47:01.567Z,101332.00
2022-10-13T19:49:47.723Z,101331.84
2022-10-13T19:52:36.893Z,101336.09
2022-10-13T19:55:16.714Z,101335.25
2022-10-13T19:58:14.562Z,101345.91
2022-10-13T20:00:54.787Z,101341.16
2022-10-13T20:03:44.708Z,101336.09
2022-10-13T20:06:32.531Z,101340.34
2022-10-13T20:09:16.657Z,101343.94
2022-10-13T20:12:04.655Z,101340.81
2022-10-13T20:14:46.992Z,101335.09
2022-10-13T20:17:33.533Z,101337.72
2022-10-13T20:20:23.598Z,101329.22
2022-10-13T20:23:11.496Z,101326.56
2022-10-13T20:25:59.873Z,101316.25
2022-10-13T20:28:50.581Z,101306.91
2022-10-13T20:31:37.547Z,101300.75
2022-10-13T20:34:24.498Z,101302.53
2022-10-13T20:37:04.892Z,101296.75
2022-10-13T20:39:51.472Z,101296.75
2022-10-13T20:42:38.518Z,101300.19
2022-10-13T20:45:18.639Z,101301.28
2022-10-13T20:48:05.483Z,101305.72
2022-10-13T20:50:45.620Z,101300.78
2022-10-13T20:53:32.488Z,101306.00
2022-10-13T20:56:13.576Z,101295.84
2022-10-13T20:59:00.485Z,101302.34
2022-10-13T21:01:40.641Z,101290.94
2022-10-13T21:04:27.496Z,101294.84
2022-10-13T21:07:07.562Z,101292.06
2022-10-13T21:09:55.450Z,101289.41
2022-10-13T21:12:42.459Z,101292.41
2022-10-13T21:15:24.870Z,101285.34
2022-10-13T21:18:11.464Z,101277.53
2022-10-13T21:20:58.453Z,101281.94
2022-10-13T21:23:38.719Z,101277.53
2022-10-13T21:26:29.460Z,101275.09
2022-10-13T21:29:12.646Z,101266.59
2022-10-13T21:31:59.461Z,101268.44
2022-10-13T21:34:39.590Z,101276.38
2022-10-13T21:37:26.438Z,101274.75
2022-10-13T21:40:07.507Z,101271.16
2022-10-13T21:42:54.434Z,101272.63
2022-10-13T21:45:34.502Z,101261.38
2022-10-13T21:48:21.502Z,101265.94
2022-10-13T21:51:01.496Z,101258.59
2022-10-13T21:53:48.401Z,101249.78
2022-10-13T21:56:36.416Z,101254.03
2022-10-13T21:59:16.758Z,101247.06
2022-10-13T22:02:03.443Z,101250.88
2022-10-13T22:04:43.753Z,101243.81
2022-10-13T22:07:30.419Z,101247.13
2022-10-13T22:10:10.857Z,101250.06
2022-10-13T22:12:57.409Z,101255.28
2022-10-13T22:15:37.867Z,101256.97
2022-10-13T22:18:28.410Z,101247.19
2022-10-13T22:21:15.769Z,101249.00
2022-10-13T22:24:02.364Z,101250.31
2022-10-13T22:26:57.548Z,101242.50
2022-10-13T22:29:37.763Z,101243.28
2022-10-13T22:32:24.365Z,101238.06
2022-10-13T22:35:05.307Z,101237.75
2022-10-13T22:37:52.395Z,101242.16
2022-10-13T22:40:32.810Z,101240.53
2022-10-13T22:43:19.354Z,101244.47
2022-10-13T22:46:03.350Z,101248.88
2022-10-13T22:48:50.350Z,101241.94
2022-10-13T22:51:32.589Z,101244.41
2022-10-13T22:54:19.382Z,101242.09
2022-10-13T22:56:59.730Z,101235.09
2022-10-13T22:59:46.344Z,101238.19
2022-10-13T23:02:33.371Z,101240.28
2022-10-13T23:05:13.476Z,101233.72
2022-10-13T23:08:00.357Z,101239.13
2022-10-13T23:10:40.436Z,101237.66
2022-10-13T23:13:27.310Z,101242.84
2022-10-13T23:16:16.300Z,101223.94
2022-10-13T23:19:03.357Z,101228.97
2022-10-13T23:21:43.410Z,101234.38
2022-10-13T23:24:30.307Z,101228.69
2022-10-13T23:27:24.334Z,101224.44
2022-10-13T23:30:05.846Z,101223.13
2022-10-13T23:32:52.304Z,101224.78
2022-10-13T23:35:32.654Z,101225.28
2022-10-13T23:38:19.318Z,101218.28
2022-10-13T23:41:08.606Z,101223.34
2022-10-13T23:43:56.260Z,101221.81
2022-10-13T23:46:43.290Z,101222.81
2022-10-13T23:49:24.446Z,101231.78
2022-10-13T23:52:11.304Z,101233.09
2022-10-13T23:54:51.421Z,101228.34
2022-10-13T23:57:40.289Z,101222.00
